Metar Aviation Weather Data LFTW

11°C Temp
7°C Dewpoint
% Humidity
Temperature
13 KM/H
8 MPH
7 KTS
110°
East South
East

Wind Speed
Mostly Cloudy
Conditions
Pressure 1023.92 (hPa) - 30.24 (in)
Visibility 6.2 (mi) - 10.0 (km)

Current Conditions
LFTW
Metar :LFTW 240100Z AUTO 11007KT 9999 BKN037 BKN054 OVC074 11/07 Q1024
Fri 24th January 02:00 am

  Metar Aviation API Data Provided by https://www.checkwx.com/ PHP scripts by weather34.com ©2020